createdAt,value
2023-01-19T00:00:55.751Z,99533.78
2023-01-19T00:03:22.848Z,99531.16
2023-01-19T00:05:50.233Z,99537.28
2023-01-19T00:08:17.852Z,99537.22
2023-01-19T00:10:48.461Z,99530.00
2023-01-19T00:13:15.758Z,99536.22
2023-01-19T00:15:43.300Z,99538.06
2023-01-19T00:18:11.193Z,99540.81
2023-01-19T00:20:39.945Z,99541.81
2023-01-19T00:23:10.554Z,99546.16
2023-01-19T00:25:42.598Z,99548.91
2023-01-19T00:28:15.896Z,99544.31
2023-01-19T00:30:43.927Z,99546.94
2023-01-19T00:33:14.574Z,99549.44
2023-01-19T00:35:42.728Z,99546.78
2023-01-19T00:38:12.038Z,99544.91
2023-01-19T00:40:39.161Z,99544.84
2023-01-19T00:43:06.175Z,99548.34
2023-01-19T00:45:34.010Z,99545.59
2023-01-19T00:48:01.364Z,99545.59
2023-01-19T00:50:30.276Z,99547.31
2023-01-19T00:53:01.256Z,99542.03
2023-01-19T00:55:30.546Z,99547.31
2023-01-19T00:57:58.833Z,99549.97
2023-01-19T01:00:26.430Z,99553.38
2023-01-19T01:02:54.300Z,99555.31
2023-01-19T01:05:21.898Z,99555.41
2023-01-19T01:07:49.946Z,99557.22
2023-01-19T01:10:27.728Z,99553.53
2023-01-19T01:13:22.226Z,99561.56
2023-01-19T01:15:44.306Z,99556.34
2023-01-19T01:18:11.266Z,99555.47
2023-01-19T01:20:38.237Z,99555.56
2023-01-19T01:23:05.235Z,99567.09
2023-01-19T01:25:34.192Z,99562.66
2023-01-19T01:28:05.167Z,99563.56
2023-01-19T01:30:32.147Z,99554.88
2023-01-19T01:32:59.753Z,99561.97
2023-01-19T01:35:27.341Z,99555.78
2023-01-19T01:37:58.815Z,99555.88
2023-01-19T01:40:25.910Z,99552.47
2023-01-19T01:42:53.190Z,99555.09
2023-01-19T01:45:34.985Z,99551.59
2023-01-19T01:48:25.695Z,99548.28
2023-01-19T01:51:19.558Z,99547.56
2023-01-19T01:53:54.735Z,99556.66
2023-01-19T01:56:40.041Z,99556.06
2023-01-19T01:59:18.048Z,99558.88
2023-01-19T02:02:03.775Z,99560.72
2023-01-19T02:04:31.984Z,99559.16
2023-01-19T02:07:17.453Z,99549.53
2023-01-19T02:10:03.388Z,99546.09
2023-01-19T02:12:49.431Z,99544.72
2023-01-19T02:15:20.210Z,99554.75
2023-01-19T02:17:48.116Z,99547.72
2023-01-19T02:20:16.224Z,99540.84
2023-01-19T02:22:49.955Z,99550.59
2023-01-19T02:25:20.273Z,99549.59
2023-01-19T02:27:48.395Z,99548.91
2023-01-19T02:30:16.853Z,99548.13
2023-01-19T02:32:44.567Z,99549.66
2023-01-19T02:35:13.056Z,99543.06
2023-01-19T02:37:42.285Z,99539.69
2023-01-19T02:40:14.635Z,99540.78
2023-01-19T02:42:49.112Z,99542.59
2023-01-19T02:45:21.521Z,99545.47
2023-01-19T02:47:52.010Z,99547.47
2023-01-19T02:50:50.784Z,99550.09
2023-01-19T02:53:32.988Z,99546.09
2023-01-19T02:56:26.792Z,99542.63
2023-01-19T02:59:33.906Z,99543.56
2023-01-19T03:02:26.869Z,99543.69
2023-01-19T03:05:26.274Z,99544.66
2023-01-19T03:08:22.975Z,99538.44
2023-01-19T03:11:08.212Z,99535.69
2023-01-19T03:13:53.124Z,99532.28
2023-01-19T03:16:22.903Z,99540.13
2023-01-19T03:19:10.083Z,99540.13
2023-01-19T03:21:42.932Z,99533.38
2023-01-19T03:24:13.575Z,99534.22
2023-01-19T03:26:49.993Z,99532.66
2023-01-19T03:29:19.895Z,99532.81
2023-01-19T03:31:50.585Z,99528.31
2023-01-19T03:34:22.144Z,99534.28
2023-01-19T03:36:57.224Z,99529.84
2023-01-19T03:39:27.134Z,99528.00
2023-01-19T03:41:59.802Z,99529.72
2023-01-19T03:44:29.811Z,99529.84
2023-01-19T03:46:59.152Z,99519.25
2023-01-19T03:49:27.094Z,99518.31
2023-01-19T03:51:59.012Z,99520.88
2023-01-19T03:54:27.255Z,99529.56
2023-01-19T03:56:54.475Z,99526.03
2023-01-19T03:59:22.026Z,99525.22
2023-01-19T04:01:49.923Z,99530.56
2023-01-19T04:04:17.230Z,99532.28
2023-01-19T04:06:44.453Z,99532.22
2023-01-19T04:09:11.797Z,99534.78
2023-01-19T04:11:39.041Z,99531.28
2023-01-19T04:14:06.070Z,99533.06
2023-01-19T04:16:33.197Z,99531.28
2023-01-19T04:19:00.286Z,99532.06
2023-01-19T04:21:27.440Z,99525.06
2023-01-19T04:23:54.608Z,99529.41
2023-01-19T04:26:21.621Z,99533.00
2023-01-19T04:28:49.273Z,99537.44
2023-01-19T04:31:16.276Z,99537.44
2023-01-19T04:33:43.251Z,99540.13
2023-01-19T04:36:10.388Z,99534.94
2023-01-19T04:38:37.565Z,99549.22
2023-01-19T04:41:04.792Z,99542.28
2023-01-19T04:43:31.927Z,99546.72
2023-01-19T04:45:59.321Z,99544.09
2023-01-19T04:48:26.436Z,99543.19
2023-01-19T04:50:53.957Z,99549.41
2023-01-19T04:53:20.978Z,99561.75
2023-01-19T04:55:48.166Z,99557.56
2023-01-19T04:58:15.283Z,99559.34
2023-01-19T05:00:44.322Z,99556.72
2023-01-19T05:03:11.674Z,99557.56
2023-01-19T05:05:38.759Z,99560.25
2023-01-19T05:08:06.058Z,99562.00
2023-01-19T05:10:33.124Z,99569.91
2023-01-19T05:13:00.455Z,99567.47
2023-01-19T05:15:28.125Z,99571.06
2023-01-19T05:17:57.935Z,99565.91
2023-01-19T05:20:25.665Z,99571.38
2023-01-19T05:22:53.529Z,99570.91
2023-01-19T05:25:20.708Z,99566.84
2023-01-19T05:27:48.080Z,99576.09
2023-01-19T05:30:15.476Z,99574.38
2023-01-19T05:32:42.526Z,99579.72
2023-01-19T05:35:10.267Z,99584.06
2023-01-19T05:37:37.338Z,99584.03
2023-01-19T05:40:05.687Z,99592.56
2023-01-19T05:42:33.067Z,99593.28
2023-01-19T05:45:00.575Z,99596.72
2023-01-19T05:47:30.071Z,99591.34
2023-01-19T05:49:58.023Z,99593.00
2023-01-19T05:52:25.232Z,99603.50
2023-01-19T05:54:52.574Z,99615.75
2023-01-19T05:57:19.578Z,99610.47
2023-01-19T05:59:46.858Z,99612.19
2023-01-19T06:02:14.172Z,99612.03
2023-01-19T06:04:41.381Z,99620.75
2023-01-19T06:07:08.369Z,99616.31
2023-01-19T06:09:35.816Z,99613.03
2023-01-19T06:12:03.107Z,99614.69
2023-01-19T06:14:30.755Z,99621.03
2023-01-19T06:16:57.906Z,99628.22
2023-01-19T06:19:24.922Z,99627.88
2023-01-19T06:21:53.417Z,99635.03
2023-01-19T06:24:20.528Z,99640.44
2023-01-19T06:26:47.605Z,99643.84
2023-01-19T06:29:15.217Z,99644.91
2023-01-19T06:31:42.965Z,99647.41
2023-01-19T06:34:10.493Z,99654.75
2023-01-19T06:36:37.590Z,99655.09
2023-01-19T06:39:06.299Z,99661.41
2023-01-19T06:41:34.723Z,99670.22
2023-01-19T06:44:02.848Z,99663.09
2023-01-19T06:46:30.247Z,99666.59
2023-01-19T06:48:57.420Z,99675.88
2023-01-19T06:51:25.544Z,99674.50
2023-01-19T06:53:52.869Z,99681.72
2023-01-19T06:56:20.241Z,99683.09
2023-01-19T06:58:48.529Z,99681.56
2023-01-19T07:01:15.853Z,99685.84
2023-01-19T07:03:44.467Z,99687.91
2023-01-19T07:06:12.654Z,99697.66
2023-01-19T07:08:40.527Z,99702.16
2023-01-19T07:11:25.779Z,99712.56
2023-01-19T07:13:58.287Z,99713.50
2023-01-19T07:16:25.640Z,99722.00
2023-01-19T07:18:52.786Z,99721.06
2023-01-19T07:21:19.989Z,99727.41
2023-01-19T07:23:53.082Z,99728.06
2023-01-19T07:26:21.569Z,99729.88
2023-01-19T07:28:49.330Z,99735.91
2023-01-19T07:31:17.955Z,99740.25
2023-01-19T07:33:45.791Z,99734.38
2023-01-19T07:36:13.714Z,99753.53
2023-01-19T07:38:41.878Z,99756.03
2023-01-19T07:41:11.056Z,99760.31
2023-01-19T07:43:38.334Z,99760.47
2023-01-19T07:46:07.239Z,99763.16
2023-01-19T07:48:34.927Z,99770.22
2023-01-19T07:51:13.058Z,99779.91
2023-01-19T07:53:42.181Z,99779.31
2023-01-19T07:56:10.913Z,99786.44
2023-01-19T07:58:39.401Z,99795.38
2023-01-19T08:01:13.076Z,99794.56
2023-01-19T08:03:40.648Z,99799.03
2023-01-19T08:06:23.850Z,99807.06
2023-01-19T08:08:51.182Z,99806.16
2023-01-19T08:11:18.332Z,99811.38
2023-01-19T08:13:45.377Z,99820.34
2023-01-19T08:16:12.518Z,99820.34
2023-01-19T08:18:39.790Z,99830.81
2023-01-19T08:21:06.941Z,99833.41
2023-01-19T08:23:34.292Z,99839.59
2023-01-19T08:26:01.539Z,99843.94
2023-01-19T08:28:28.588Z,99851.88
2023-01-19T08:30:55.757Z,99856.09
2023-01-19T08:33:24.368Z,99866.72
2023-01-19T08:35:53.562Z,99871.91
2023-01-19T08:38:20.767Z,99877.13
2023-01-19T08:40:49.162Z,99876.13
2023-01-19T08:43:17.947Z,99878.72
2023-01-19T08:45:52.467Z,99881.28
2023-01-19T08:48:22.801Z,99886.50
2023-01-19T08:50:51.697Z,99888.28
2023-01-19T08:53:21.133Z,99890.94
2023-01-19T08:55:48.263Z,99899.72
2023-01-19T08:58:16.187Z,99905.84
2023-01-19T09:00:43.201Z,99907.53
2023-01-19T09:03:13.983Z,99912.91
2023-01-19T09:05:41.157Z,99914.59
2023-01-19T09:08:11.525Z,99919.88
2023-01-19T09:10:40.045Z,99920.72
2023-01-19T09:13:11.071Z,99923.38
2023-01-19T09:15:42.341Z,99929.50
2023-01-19T09:18:13.848Z,99941.00
2023-01-19T09:20:42.872Z,99937.50
2023-01-19T09:23:15.356Z,99943.63
2023-01-19T09:25:45.480Z,99943.63
2023-01-19T09:28:16.192Z,99946.22
2023-01-19T09:30:44.772Z,99949.75
2023-01-19T09:33:15.381Z,99952.41
2023-01-19T09:35:45.152Z,99951.53
2023-01-19T09:38:13.462Z,99947.13
2023-01-19T09:40:52.618Z,99956.09
2023-01-19T09:43:40.144Z,99955.28
2023-01-19T09:46:15.873Z,99967.69
2023-01-19T09:48:53.559Z,99964.97
2023-01-19T09:51:44.734Z,99975.50
2023-01-19T09:54:20.869Z,99978.13
2023-01-19T09:56:52.735Z,99982.47
2023-01-19T09:59:27.473Z,99977.06
2023-01-19T10:02:14.457Z,99981.53
2023-01-19T10:05:02.624Z,99980.66
2023-01-19T10:08:03.600Z,99986.03
2023-01-19T10:10:32.630Z,99988.59
2023-01-19T10:13:17.759Z,99987.66
2023-01-19T10:16:12.998Z,99990.25
2023-01-19T10:18:48.017Z,99991.97
2023-01-19T10:21:21.775Z,99988.44
2023-01-19T10:24:13.655Z,99993.72
2023-01-19T10:26:49.913Z,99997.25
2023-01-19T10:29:27.531Z,99999.84
2023-01-19T10:32:17.335Z,99997.22
2023-01-19T10:34:44.556Z,100000.69
2023-01-19T10:37:17.663Z,100004.13
2023-01-19T10:39:47.881Z,100007.75
2023-01-19T10:42:17.496Z,100008.66
2023-01-19T10:44:46.052Z,100006.84
2023-01-19T10:47:20.796Z,100003.25
2023-01-19T10:49:48.992Z,100008.53
2023-01-19T10:52:36.659Z,100006.75
2023-01-19T10:55:07.713Z,100006.75
2023-01-19T10:57:39.010Z,100002.28
2023-01-19T11:00:40.250Z,100012.81
2023-01-19T11:03:30.000Z,100011.88
2023-01-19T11:06:15.596Z,100008.38
2023-01-19T11:08:45.535Z,100007.53
2023-01-19T11:11:13.523Z,100001.31
2023-01-19T11:13:42.542Z,100005.84
2023-01-19T11:16:25.924Z,100001.44
2023-01-19T11:18:55.968Z,100003.25
2023-01-19T11:21:27.338Z,100006.75
2023-01-19T11:24:05.440Z,99998.91
2023-01-19T11:26:44.419Z,100010.31
2023-01-19T11:29:30.643Z,100018.31
2023-01-19T11:32:12.301Z,100014.81
2023-01-19T11:34:39.485Z,100019.22
2023-01-19T11:37:31.845Z,100012.00
2023-01-19T11:40:02.623Z,100020.22
2023-01-19T11:42:33.996Z,100020.16
2023-01-19T11:45:18.271Z,100021.19
2023-01-19T11:47:50.383Z,100020.69
2023-01-19T11:50:25.791Z,100018.97
2023-01-19T11:53:04.881Z,100022.59
2023-01-19T11:55:51.253Z,100020.91
2023-01-19T11:58:20.229Z,100015.69
2023-01-19T12:01:07.276Z,100013.31
2023-01-19T12:03:41.265Z,100017.59
2023-01-19T12:06:20.665Z,100013.44
2023-01-19T12:08:56.098Z,100016.09
2023-01-19T12:11:31.680Z,100019.72
2023-01-19T12:14:00.610Z,100016.00
2023-01-19T12:16:33.093Z,100017.34
2023-01-19T12:19:16.325Z,100014.28
2023-01-19T12:21:48.202Z,100016.31
2023-01-19T12:24:39.443Z,100014.63
2023-01-19T12:27:25.426Z,100011.03
2023-01-19T12:29:54.941Z,100020.72
2023-01-19T12:32:35.125Z,100015.34
2023-01-19T12:35:02.350Z,100016.19
2023-01-19T12:37:35.534Z,100024.84
2023-01-19T12:40:30.261Z,100020.41
2023-01-19T12:43:04.359Z,100023.09
2023-01-19T12:45:36.795Z,100027.34
2023-01-19T12:48:05.460Z,100025.88
2023-01-19T12:50:38.094Z,100023.25
2023-01-19T12:53:20.718Z,100019.69
2023-01-19T12:56:00.333Z,100026.53
2023-01-19T12:58:27.829Z,100028.38
2023-01-19T13:01:18.877Z,100027.47
2023-01-19T13:04:09.777Z,100023.28
2023-01-19T13:06:48.773Z,100022.47
2023-01-19T13:09:39.510Z,100026.78
2023-01-19T13:12:24.444Z,100031.16
2023-01-19T13:15:28.442Z,100029.28
2023-01-19T13:17:56.761Z,100037.16
2023-01-19T13:20:57.381Z,100039.72
2023-01-19T13:23:30.227Z,100039.72
2023-01-19T13:26:06.743Z,100043.19
2023-01-19T13:28:43.589Z,100041.44
2023-01-19T13:31:12.420Z,100045.88
2023-01-19T13:33:56.681Z,100037.94
2023-01-19T13:36:33.521Z,100038.91
2023-01-19T13:39:05.224Z,100045.94
2023-01-19T13:41:38.673Z,100053.84
2023-01-19T13:44:14.769Z,100050.28
2023-01-19T13:46:42.144Z,100055.66
2023-01-19T13:49:28.987Z,100060.00
2023-01-19T13:52:30.583Z,100061.75
2023-01-19T13:55:02.769Z,100059.91
2023-01-19T13:57:45.940Z,100070.44
2023-01-19T14:00:17.077Z,100061.69
2023-01-19T14:02:53.706Z,100067.03
2023-01-19T14:05:35.257Z,100072.31
2023-01-19T14:08:08.241Z,100066.97
2023-01-19T14:10:40.985Z,100067.94
2023-01-19T14:13:27.286Z,100069.66
2023-01-19T14:15:58.528Z,100075.84
2023-01-19T14:18:30.947Z,100080.25
2023-01-19T14:21:15.059Z,100080.22
2023-01-19T14:24:08.407Z,100075.09
2023-01-19T14:26:56.284Z,100076.84
2023-01-19T14:29:38.078Z,100078.56
2023-01-19T14:32:23.933Z,100077.84
2023-01-19T14:35:04.539Z,100084.03
2023-01-19T14:37:35.506Z,100080.66
2023-01-19T14:40:18.548Z,100082.47
2023-01-19T14:43:00.200Z,100086.88
2023-01-19T14:45:36.608Z,100083.19
2023-01-19T14:48:20.475Z,100083.13
2023-01-19T14:51:02.320Z,100090.28
2023-01-19T14:53:37.279Z,100096.59
2023-01-19T14:56:07.379Z,100094.81
2023-01-19T14:58:36.357Z,100098.31
2023-01-19T15:01:06.443Z,100095.63
2023-01-19T15:03:44.026Z,100105.22
2023-01-19T15:06:19.553Z,100097.53
2023-01-19T15:08:49.267Z,100102.94
2023-01-19T15:11:22.908Z,100103.88
2023-01-19T15:13:50.880Z,100101.97
2023-01-19T15:16:18.314Z,100110.91
2023-01-19T15:18:45.390Z,100111.06
2023-01-19T15:21:19.559Z,100114.53
2023-01-19T15:23:47.685Z,100111.88
2023-01-19T15:26:21.397Z,100110.09
2023-01-19T15:28:49.306Z,100112.06
2023-01-19T15:31:22.103Z,100112.09
2023-01-19T15:33:49.596Z,100116.41
2023-01-19T15:36:22.375Z,100111.13
2023-01-19T15:38:51.106Z,100118.28
2023-01-19T15:41:29.786Z,100124.38
2023-01-19T15:43:57.223Z,100130.50
2023-01-19T15:46:29.675Z,100133.94
2023-01-19T15:48:57.281Z,100131.38
2023-01-19T15:51:26.193Z,100134.97
2023-01-19T15:53:55.010Z,100134.94
2023-01-19T15:56:28.347Z,100143.59
2023-01-19T15:58:56.269Z,100138.34
2023-01-19T16:01:31.622Z,100138.13
2023-01-19T16:04:01.576Z,100151.94
2023-01-19T16:06:30.502Z,100149.06
2023-01-19T16:09:01.196Z,100140.44
2023-01-19T16:11:33.472Z,100154.13
2023-01-19T16:14:01.198Z,100151.00
2023-01-19T16:16:28.254Z,100153.63
2023-01-19T16:18:55.968Z,100156.22
2023-01-19T16:21:24.274Z,100142.94
2023-01-19T16:23:52.191Z,100163.22
2023-01-19T16:26:37.398Z,100157.88
2023-01-19T16:29:10.956Z,100158.66
2023-01-19T16:31:40.599Z,100163.03
2023-01-19T16:34:09.397Z,100170.06
2023-01-19T16:36:40.606Z,100174.47
2023-01-19T16:39:13.499Z,100170.94
2023-01-19T16:41:42.045Z,100172.78
2023-01-19T16:44:12.741Z,100175.34
2023-01-19T16:46:42.727Z,100182.41
2023-01-19T16:49:17.023Z,100182.47
2023-01-19T16:51:44.264Z,100185.00
2023-01-19T16:54:15.147Z,100188.44
2023-01-19T16:56:42.812Z,100191.16
2023-01-19T16:59:12.735Z,100191.06
2023-01-19T17:01:40.486Z,100192.75
2023-01-19T17:04:07.954Z,100186.66
2023-01-19T17:06:35.236Z,100190.16
2023-01-19T17:09:02.945Z,100189.28
2023-01-19T17:11:32.147Z,100191.94
2023-01-19T17:14:14.072Z,100196.13
2023-01-19T17:16:43.168Z,100190.16
2023-01-19T17:19:16.547Z,100198.13
2023-01-19T17:21:51.053Z,100197.19
2023-01-19T17:24:18.443Z,100200.66
2023-01-19T17:26:48.591Z,100196.31
2023-01-19T17:29:16.639Z,100198.88
2023-01-19T17:31:44.544Z,100200.59
2023-01-19T17:34:11.732Z,100200.50
2023-01-19T17:36:40.961Z,100199.59
2023-01-19T17:39:14.531Z,100200.34
2023-01-19T17:41:41.700Z,100205.56
2023-01-19T17:44:10.506Z,100203.00
2023-01-19T17:46:39.358Z,100202.13
2023-01-19T17:49:07.958Z,100202.06
2023-01-19T17:51:35.687Z,100203.78
2023-01-19T17:54:04.200Z,100208.16
2023-01-19T17:56:36.797Z,100209.88
2023-01-19T17:59:06.604Z,100207.31
2023-01-19T18:01:37.084Z,100216.84
2023-01-19T18:04:04.352Z,100220.31
2023-01-19T18:06:31.352Z,100222.00
2023-01-19T18:09:01.766Z,100221.91
2023-01-19T18:11:29.344Z,100224.41
2023-01-19T18:13:56.344Z,100222.69
2023-01-19T18:16:26.488Z,100227.94
2023-01-19T18:18:55.352Z,100222.75
2023-01-19T18:21:24.239Z,100222.78
2023-01-19T18:23:51.700Z,100229.91
2023-01-19T18:26:22.342Z,100229.16
2023-01-19T18:28:49.700Z,100227.31
2023-01-19T18:31:19.222Z,100229.94
2023-01-19T18:33:48.326Z,100223.78
2023-01-19T18:36:16.669Z,100228.13
2023-01-19T18:38:44.406Z,100227.25
2023-01-19T18:41:14.963Z,100224.63
2023-01-19T18:43:42.929Z,100222.78
2023-01-19T18:46:10.417Z,100230.66
2023-01-19T18:48:39.065Z,100220.84
2023-01-19T18:51:13.898Z,100225.22
2023-01-19T18:53:41.587Z,100226.94
2023-01-19T18:56:12.148Z,100227.75
2023-01-19T18:58:40.178Z,100227.69
2023-01-19T19:01:33.335Z,100230.34
2023-01-19T19:04:00.911Z,100229.34
2023-01-19T19:06:28.158Z,100229.31
2023-01-19T19:08:58.215Z,100233.66
2023-01-19T19:11:26.627Z,100223.09
2023-01-19T19:13:56.887Z,100229.13
2023-01-19T19:16:27.023Z,100227.31
2023-01-19T19:19:00.324Z,100221.13
2023-01-19T19:21:33.262Z,100229.03
2023-01-19T19:24:04.137Z,100226.34
2023-01-19T19:26:35.874Z,100217.50
2023-01-19T19:29:04.613Z,100221.88
2023-01-19T19:31:32.169Z,100220.97
2023-01-19T19:33:59.865Z,100218.34
2023-01-19T19:36:28.594Z,100217.41
2023-01-19T19:38:55.710Z,100215.69
2023-01-19T19:41:29.359Z,100219.19
2023-01-19T19:43:56.607Z,100217.47
2023-01-19T19:46:27.728Z,100226.25
2023-01-19T19:48:55.115Z,100211.28
2023-01-19T19:51:26.957Z,100222.69
2023-01-19T19:53:56.849Z,100218.34
2023-01-19T19:56:26.279Z,100226.19
2023-01-19T19:58:56.175Z,100221.81
2023-01-19T20:01:32.661Z,100215.63
2023-01-19T20:04:08.546Z,100228.78
2023-01-19T20:06:39.936Z,100231.41
2023-01-19T20:09:10.470Z,100226.13
2023-01-19T20:11:37.590Z,100226.13
2023-01-19T20:14:06.697Z,100229.66
2023-01-19T20:16:33.913Z,100224.47
2023-01-19T20:19:01.486Z,100228.81
2023-01-19T20:21:32.243Z,100226.19
2023-01-19T20:24:02.305Z,100227.97
2023-01-19T20:26:33.493Z,100223.59
2023-01-19T20:29:06.127Z,100225.31
2023-01-19T20:31:46.691Z,100230.59
2023-01-19T20:34:16.792Z,100231.53
2023-01-19T20:36:46.898Z,100226.25
2023-01-19T20:39:13.846Z,100237.69
2023-01-19T20:41:45.033Z,100238.50
2023-01-19T20:44:14.844Z,100242.06
2023-01-19T20:46:42.455Z,100245.59
2023-01-19T20:49:10.204Z,100249.13
2023-01-19T20:51:39.752Z,100253.59
2023-01-19T20:54:06.631Z,100257.16
2023-01-19T20:56:33.540Z,100250.13
2023-01-19T20:59:02.068Z,100254.56
2023-01-19T21:01:29.071Z,100256.34
2023-01-19T21:03:56.207Z,100252.84
2023-01-19T21:06:23.536Z,100250.19
2023-01-19T21:08:51.196Z,100249.28
2023-01-19T21:11:21.058Z,100255.41
2023-01-19T21:13:49.121Z,100258.97
2023-01-19T21:16:16.499Z,100258.13
2023-01-19T21:18:43.908Z,100256.41
2023-01-19T21:21:28.497Z,100254.66
2023-01-19T21:23:58.440Z,100257.25
2023-01-19T21:26:25.518Z,100250.19
2023-01-19T21:28:52.568Z,100251.91
2023-01-19T21:31:21.448Z,100261.50
2023-01-19T21:33:49.297Z,100258.88
2023-01-19T21:36:16.236Z,100249.16
2023-01-19T21:38:43.176Z,100255.31
2023-01-19T21:41:12.757Z,100257.91
2023-01-19T21:43:42.625Z,100257.06
2023-01-19T21:46:16.659Z,100265.81
2023-01-19T21:48:44.003Z,100257.84
2023-01-19T21:51:11.037Z,100252.56
2023-01-19T21:53:38.424Z,100255.16
2023-01-19T21:56:20.776Z,100259.56
2023-01-19T21:58:47.823Z,100265.72
2023-01-19T22:01:14.884Z,100274.50
2023-01-19T22:03:42.889Z,100279.75
2023-01-19T22:06:14.306Z,100282.34
2023-01-19T22:08:42.625Z,100282.44
2023-01-19T22:11:12.410Z,100285.06
2023-01-19T22:13:40.290Z,100283.28
2023-01-19T22:16:17.350Z,100285.91
2023-01-19T22:18:50.228Z,100278.91
2023-01-19T22:21:21.244Z,100282.41
2023-01-19T22:23:54.416Z,100292.03
2023-01-19T22:26:22.452Z,100292.88
2023-01-19T22:28:55.055Z,100292.88
2023-01-19T22:31:24.023Z,100299.91
2023-01-19T22:33:51.366Z,100307.81
2023-01-19T22:36:30.768Z,100310.41
2023-01-19T22:39:01.026Z,100301.63
2023-01-19T22:41:36.900Z,100303.34
2023-01-19T22:44:07.641Z,100295.38
2023-01-19T22:46:36.662Z,100295.41
2023-01-19T22:49:05.289Z,100296.25
2023-01-19T22:51:32.678Z,100292.69
2023-01-19T22:54:00.801Z,100293.59
2023-01-19T22:56:30.786Z,100300.59
2023-01-19T22:58:58.777Z,100294.38
2023-01-19T23:01:40.703Z,100297.91
2023-01-19T23:04:12.024Z,100297.97
2023-01-19T23:06:39.314Z,100301.44
2023-01-19T23:09:11.978Z,100299.66
2023-01-19T23:11:42.897Z,100309.34
2023-01-19T23:14:16.238Z,100304.94
2023-01-19T23:16:43.256Z,100311.97
2023-01-19T23:19:12.231Z,100309.34
2023-01-19T23:21:40.475Z,100310.19
2023-01-19T23:24:08.433Z,100311.97
2023-01-19T23:26:38.313Z,100310.19
2023-01-19T23:29:14.624Z,100318.97
2023-01-19T23:31:49.159Z,100322.53
2023-01-19T23:34:17.301Z,100330.47
2023-01-19T23:36:45.076Z,100328.13
2023-01-19T23:39:20.400Z,100324.56
2023-01-19T23:41:48.017Z,100330.00
2023-01-19T23:44:15.871Z,100335.28
2023-01-19T23:46:43.920Z,100336.22
2023-01-19T23:49:12.033Z,100337.06
2023-01-19T23:51:39.931Z,100341.41
2023-01-19T23:54:07.205Z,100342.28
2023-01-19T23:56:37.287Z,100350.19
2023-01-19T23:59:08.575Z,100354.59
